sensor_id;sensor_type;location;lat;lon;timestamp;temperature;humidity
20155;DHT22;10238;49.556;10.956;2023-12-14T00:02:20;5.30;99.90
20155;DHT22;10238;49.556;10.956;2023-12-14T00:05:08;5.40;99.90
20155;DHT22;10238;49.556;10.956;2023-12-14T00:07:56;5.40;99.90
20155;DHT22;10238;49.556;10.956;2023-12-14T00:10:43;5.40;99.90
20155;DHT22;10238;49.556;10.956;2023-12-14T00:13:31;5.40;99.90
20155;DHT22;10238;49.556;10.956;2023-12-14T00:16:18;5.50;99.90
20155;DHT22;10238;49.556;10.956;2023-12-14T00:19:07;5.50;99.90
20155;DHT22;10238;49.556;10.956;2023-12-14T00:21:55;5.50;99.90
20155;DHT22;10238;49.556;10.956;2023-12-14T00:24:42;5.50;99.90
20155;DHT22;10238;49.556;10.956;2023-12-14T00:27:30;5.50;99.90
20155;DHT22;10238;49.556;10.956;2023-12-14T00:30:18;5.60;99.90
20155;DHT22;10238;49.556;10.956;2023-12-14T00:33:05;5.50;99.90
20155;DHT22;10238;49.556;10.956;2023-12-14T00:35:55;5.50;99.90
20155;DHT22;10238;49.556;10.956;2023-12-14T00:38:42;5.50;99.90
20155;DHT22;10238;49.556;10.956;2023-12-14T00:41:30;5.50;99.90
20155;DHT22;10238;49.556;10.956;2023-12-14T00:44:17;5.50;99.90
20155;DHT22;10238;49.556;10.956;2023-12-14T00:47:05;5.50;99.90
20155;DHT22;10238;49.556;10.956;2023-12-14T00:49:52;5.50;99.90
20155;DHT22;10238;49.556;10.956;2023-12-14T00:52:41;5.40;99.90
20155;DHT22;10238;49.556;10.956;2023-12-14T00:55:29;5.40;99.90
20155;DHT22;10238;49.556;10.956;2023-12-14T00:58:16;5.40;99.90
20155;DHT22;10238;49.556;10.956;2023-12-14T01:01:04;5.30;99.90
20155;DHT22;10238;49.556;10.956;2023-12-14T01:03:52;5.30;99.90
20155;DHT22;10238;49.556;10.956;2023-12-14T01:06:39;5.30;99.90
20155;DHT22;10238;49.556;10.956;2023-12-14T01:09:28;5.20;99.90
20155;DHT22;10238;49.556;10.956;2023-12-14T01:12:15;5.10;99.90
20155;DHT22;10238;49.556;10.956;2023-12-14T01:15:04;5.10;99.90
20155;DHT22;10238;49.556;10.956;2023-12-14T01:17:52;5.10;99.90
20155;DHT22;10238;49.556;10.956;2023-12-14T01:20:40;5.10;99.90
20155;DHT22;10238;49.556;10.956;2023-12-14T01:23:27;5.10;99.90
20155;DHT22;10238;49.556;10.956;2023-12-14T01:26:16;5.20;99.90
20155;DHT22;10238;49.556;10.956;2023-12-14T01:29:04;5.20;99.90
20155;DHT22;10238;49.556;10.956;2023-12-14T01:31:51;5.30;99.90
20155;DHT22;10238;49.556;10.956;2023-12-14T01:34:39;5.20;99.90
20155;DHT22;10238;49.556;10.956;2023-12-14T01:37:26;5.20;99.90
20155;DHT22;10238;49.556;10.956;2023-12-14T01:40:14;5.20;99.90
20155;DHT22;10238;49.556;10.956;2023-12-14T01:43:10;5.20;99.90
20155;DHT22;10238;49.556;10.956;2023-12-14T01:45:57;5.20;99.90
20155;DHT22;10238;49.556;10.956;2023-12-14T01:48:45;5.20;99.90
20155;DHT22;10238;49.556;10.956;2023-12-14T01:51:32;5.20;99.90
20155;DHT22;10238;49.556;10.956;2023-12-14T01:54:21;5.20;99.90
20155;DHT22;10238;49.556;10.956;2023-12-14T01:57:09;5.20;99.90
20155;DHT22;10238;49.556;10.956;2023-12-14T01:59:58;5.20;99.90
20155;DHT22;10238;49.556;10.956;2023-12-14T02:02:45;5.20;99.90
20155;DHT22;10238;49.556;10.956;2023-12-14T02:05:32;5.20;99.90
20155;DHT22;10238;49.556;10.956;2023-12-14T02:08:20;5.20;99.90
20155;DHT22;10238;49.556;10.956;2023-12-14T02:11:08;5.20;99.90
20155;DHT22;10238;49.556;10.956;2023-12-14T02:13:56;5.20;99.90
20155;DHT22;10238;49.556;10.956;2023-12-14T02:16:45;5.20;99.90
20155;DHT22;10238;49.556;10.956;2023-12-14T02:19:32;5.20;99.90
20155;DHT22;10238;49.556;10.956;2023-12-14T02:22:20;5.20;99.90
20155;DHT22;10238;49.556;10.956;2023-12-14T02:25:09;5.20;99.90
20155;DHT22;10238;49.556;10.956;2023-12-14T02:27:56;5.20;99.90
20155;DHT22;10238;49.556;10.956;2023-12-14T02:30:44;5.20;99.90
20155;DHT22;10238;49.556;10.956;2023-12-14T02:33:32;5.20;99.90
20155;DHT22;10238;49.556;10.956;2023-12-14T02:36:20;5.20;99.90
20155;DHT22;10238;49.556;10.956;2023-12-14T02:39:07;5.20;99.90
20155;DHT22;10238;49.556;10.956;2023-12-14T02:41:56;5.20;99.90
20155;DHT22;10238;49.556;10.956;2023-12-14T02:44:44;5.20;99.90
20155;DHT22;10238;49.556;10.956;2023-12-14T02:47:31;5.20;99.90
20155;DHT22;10238;49.556;10.956;2023-12-14T02:50:19;5.20;99.90
20155;DHT22;10238;49.556;10.956;2023-12-14T02:53:06;5.20;99.90
20155;DHT22;10238;49.556;10.956;2023-12-14T02:55:54;5.20;99.90
20155;DHT22;10238;49.556;10.956;2023-12-14T02:58:43;5.20;99.90
20155;DHT22;10238;49.556;10.956;2023-12-14T03:01:30;5.20;99.90
20155;DHT22;10238;49.556;10.956;2023-12-14T03:04:18;5.20;99.90
20155;DHT22;10238;49.556;10.956;2023-12-14T03:07:05;5.20;99.90
20155;DHT22;10238;49.556;10.956;2023-12-14T03:09:53;5.20;99.90
20155;DHT22;10238;49.556;10.956;2023-12-14T03:12:40;5.20;99.90
20155;DHT22;10238;49.556;10.956;2023-12-14T03:15:29;5.30;99.90
20155;DHT22;10238;49.556;10.956;2023-12-14T03:18:16;5.30;99.90
20155;DHT22;10238;49.556;10.956;2023-12-14T03:21:04;5.30;99.90
20155;DHT22;10238;49.556;10.956;2023-12-14T03:23:52;5.30;99.90
20155;DHT22;10238;49.556;10.956;2023-12-14T03:26:40;5.30;99.90
20155;DHT22;10238;49.556;10.956;2023-12-14T03:29:27;5.30;99.90
20155;DHT22;10238;49.556;10.956;2023-12-14T03:32:16;5.30;99.90
20155;DHT22;10238;49.556;10.956;2023-12-14T03:35:05;5.30;99.90
20155;DHT22;10238;49.556;10.956;2023-12-14T03:37:54;5.30;99.90
20155;DHT22;10238;49.556;10.956;2023-12-14T03:40:42;5.30;99.90
20155;DHT22;10238;49.556;10.956;2023-12-14T03:43:29;5.20;99.90
20155;DHT22;10238;49.556;10.956;2023-12-14T03:46:17;5.30;99.90
20155;DHT22;10238;49.556;10.956;2023-12-14T03:49:06;5.20;99.90
20155;DHT22;10238;49.556;10.956;2023-12-14T03:51:55;5.30;99.90
20155;DHT22;10238;49.556;10.956;2023-12-14T03:54:42;5.20;99.90
20155;DHT22;10238;49.556;10.956;2023-12-14T03:57:30;5.20;99.90
20155;DHT22;10238;49.556;10.956;2023-12-14T04:00:18;5.30;99.90
20155;DHT22;10238;49.556;10.956;2023-12-14T04:03:05;5.20;99.90
20155;DHT22;10238;49.556;10.956;2023-12-14T04:05:54;5.20;99.90
20155;DHT22;10238;49.556;10.956;2023-12-14T04:08:42;5.20;99.90
20155;DHT22;10238;49.556;10.956;2023-12-14T04:11:30;5.20;99.90
20155;DHT22;10238;49.556;10.956;2023-12-14T04:14:17;5.20;99.90
20155;DHT22;10238;49.556;10.956;2023-12-14T04:17:04;5.20;99.90
20155;DHT22;10238;49.556;10.956;2023-12-14T04:19:52;5.20;99.90
20155;DHT22;10238;49.556;10.956;2023-12-14T04:22:41;5.20;99.90
20155;DHT22;10238;49.556;10.956;2023-12-14T04:25:30;5.20;99.90
20155;DHT22;10238;49.556;10.956;2023-12-14T04:28:17;5.20;99.90
20155;DHT22;10238;49.556;10.956;2023-12-14T04:31:05;5.20;99.90
20155;DHT22;10238;49.556;10.956;2023-12-14T04:33:52;5.20;99.90
20155;DHT22;10238;49.556;10.956;2023-12-14T04:36:40;5.20;99.90
20155;DHT22;10238;49.556;10.956;2023-12-14T04:39:29;5.10;99.90
20155;DHT22;10238;49.556;10.956;2023-12-14T04:42:16;5.10;99.90
20155;DHT22;10238;49.556;10.956;2023-12-14T04:45:05;5.20;99.90
20155;DHT22;10238;49.556;10.956;2023-12-14T04:47:55;5.10;99.90
20155;DHT22;10238;49.556;10.956;2023-12-14T04:50:42;5.10;99.90
20155;DHT22;10238;49.556;10.956;2023-12-14T04:53:30;5.10;99.90
20155;DHT22;10238;49.556;10.956;2023-12-14T04:56:19;5.10;99.90
20155;DHT22;10238;49.556;10.956;2023-12-14T04:59:06;5.10;99.90
20155;DHT22;10238;49.556;10.956;2023-12-14T05:01:54;5.10;99.90
20155;DHT22;10238;49.556;10.956;2023-12-14T05:04:41;5.10;99.90
20155;DHT22;10238;49.556;10.956;2023-12-14T05:07:29;5.10;99.90
20155;DHT22;10238;49.556;10.956;2023-12-14T05:10:17;5.00;99.90
20155;DHT22;10238;49.556;10.956;2023-12-14T05:13:06;5.00;99.90
20155;DHT22;10238;49.556;10.956;2023-12-14T05:15:53;5.00;99.90
20155;DHT22;10238;49.556;10.956;2023-12-14T05:18:41;5.00;99.90
20155;DHT22;10238;49.556;10.956;2023-12-14T05:21:29;4.90;99.90
20155;DHT22;10238;49.556;10.956;2023-12-14T05:24:16;4.90;99.90
20155;DHT22;10238;49.556;10.956;2023-12-14T05:27:04;4.90;99.90
20155;DHT22;10238;49.556;10.956;2023-12-14T05:29:53;4.80;99.90
20155;DHT22;10238;49.556;10.956;2023-12-14T05:32:41;4.80;99.90
20155;DHT22;10238;49.556;10.956;2023-12-14T05:35:29;4.80;99.90
20155;DHT22;10238;49.556;10.956;2023-12-14T05:38:17;4.80;99.90
20155;DHT22;10238;49.556;10.956;2023-12-14T05:41:05;4.80;99.90
20155;DHT22;10238;49.556;10.956;2023-12-14T05:43:53;4.80;99.90
20155;DHT22;10238;49.556;10.956;2023-12-14T05:46:41;4.80;99.90
20155;DHT22;10238;49.556;10.956;2023-12-14T05:49:29;4.80;99.90
20155;DHT22;10238;49.556;10.956;2023-12-14T05:52:17;4.90;99.90
20155;DHT22;10238;49.556;10.956;2023-12-14T05:55:06;4.90;99.90
20155;DHT22;10238;49.556;10.956;2023-12-14T05:57:55;4.90;99.90
20155;DHT22;10238;49.556;10.956;2023-12-14T06:00:43;4.90;99.90
20155;DHT22;10238;49.556;10.956;2023-12-14T06:03:31;4.80;99.90
20155;DHT22;10238;49.556;10.956;2023-12-14T06:06:19;4.90;99.90
20155;DHT22;10238;49.556;10.956;2023-12-14T06:09:07;4.90;99.90
20155;DHT22;10238;49.556;10.956;2023-12-14T06:11:54;4.90;99.90
20155;DHT22;10238;49.556;10.956;2023-12-14T06:14:42;4.90;99.90
20155;DHT22;10238;49.556;10.956;2023-12-14T06:17:31;4.90;99.90
20155;DHT22;10238;49.556;10.956;2023-12-14T06:20:21;4.90;99.90
20155;DHT22;10238;49.556;10.956;2023-12-14T06:23:09;4.90;99.90
20155;DHT22;10238;49.556;10.956;2023-12-14T06:25:58;4.90;99.90
20155;DHT22;10238;49.556;10.956;2023-12-14T06:28:45;4.90;99.90
20155;DHT22;10238;49.556;10.956;2023-12-14T06:31:33;4.90;99.90
20155;DHT22;10238;49.556;10.956;2023-12-14T06:34:21;4.90;99.90
20155;DHT22;10238;49.556;10.956;2023-12-14T06:37:10;4.80;99.90
20155;DHT22;10238;49.556;10.956;2023-12-14T06:39:57;4.80;99.90
20155;DHT22;10238;49.556;10.956;2023-12-14T06:42:45;4.80;99.90
20155;DHT22;10238;49.556;10.956;2023-12-14T06:45:33;4.80;99.90
20155;DHT22;10238;49.556;10.956;2023-12-14T06:48:23;4.80;99.90
20155;DHT22;10238;49.556;10.956;2023-12-14T06:51:11;4.80;99.90
20155;DHT22;10238;49.556;10.956;2023-12-14T06:54:00;4.80;99.90
20155;DHT22;10238;49.556;10.956;2023-12-14T06:56:47;4.90;99.90
20155;DHT22;10238;49.556;10.956;2023-12-14T06:59:35;4.90;99.90
20155;DHT22;10238;49.556;10.956;2023-12-14T07:02:22;4.90;99.90
20155;DHT22;10238;49.556;10.956;2023-12-14T07:05:10;4.90;99.90
20155;DHT22;10238;49.556;10.956;2023-12-14T07:07:58;4.80;99.90
20155;DHT22;10238;49.556;10.956;2023-12-14T07:10:47;4.80;99.90
20155;DHT22;10238;49.556;10.956;2023-12-14T07:13:34;4.80;99.90
20155;DHT22;10238;49.556;10.956;2023-12-14T07:16:23;4.80;99.90
20155;DHT22;10238;49.556;10.956;2023-12-14T07:19:11;4.90;99.90
20155;DHT22;10238;49.556;10.956;2023-12-14T07:21:58;4.90;99.90
20155;DHT22;10238;49.556;10.956;2023-12-14T07:24:46;4.90;99.90
20155;DHT22;10238;49.556;10.956;2023-12-14T07:27:42;4.90;99.90
20155;DHT22;10238;49.556;10.956;2023-12-14T07:30:32;4.90;99.90
20155;DHT22;10238;49.556;10.956;2023-12-14T07:33:20;4.90;99.90
20155;DHT22;10238;49.556;10.956;2023-12-14T07:36:08;4.90;99.90
20155;DHT22;10238;49.556;10.956;2023-12-14T07:38:56;4.90;99.90
20155;DHT22;10238;49.556;10.956;2023-12-14T07:41:46;4.90;99.90
20155;DHT22;10238;49.556;10.956;2023-12-14T07:44:35;4.90;99.90
20155;DHT22;10238;49.556;10.956;2023-12-14T07:47:24;4.80;99.90
20155;DHT22;10238;49.556;10.956;2023-12-14T07:50:12;4.90;99.90
20155;DHT22;10238;49.556;10.956;2023-12-14T07:53:00;5.00;99.90
20155;DHT22;10238;49.556;10.956;2023-12-14T07:55:48;5.00;99.90
20155;DHT22;10238;49.556;10.956;2023-12-14T07:58:36;5.00;99.90
20155;DHT22;10238;49.556;10.956;2023-12-14T08:01:25;5.10;99.90
20155;DHT22;10238;49.556;10.956;2023-12-14T08:04:12;5.10;99.90
20155;DHT22;10238;49.556;10.956;2023-12-14T08:06:59;5.10;99.90
20155;DHT22;10238;49.556;10.956;2023-12-14T08:09:47;5.10;99.90
20155;DHT22;10238;49.556;10.956;2023-12-14T08:12:35;5.10;99.90
20155;DHT22;10238;49.556;10.956;2023-12-14T08:15:23;5.10;99.90
20155;DHT22;10238;49.556;10.956;2023-12-14T08:18:12;5.20;99.90
20155;DHT22;10238;49.556;10.956;2023-12-14T08:20:59;5.20;99.90
20155;DHT22;10238;49.556;10.956;2023-12-14T08:23:47;5.20;99.90
20155;DHT22;10238;49.556;10.956;2023-12-14T08:26:34;5.30;99.90
20155;DHT22;10238;49.556;10.956;2023-12-14T08:29:22;5.30;99.90
20155;DHT22;10238;49.556;10.956;2023-12-14T08:32:09;5.40;99.90
20155;DHT22;10238;49.556;10.956;2023-12-14T08:34:58;5.50;99.90
20155;DHT22;10238;49.556;10.956;2023-12-14T08:37:46;5.50;99.90
20155;DHT22;10238;49.556;10.956;2023-12-14T08:40:34;5.50;99.90
20155;DHT22;10238;49.556;10.956;2023-12-14T08:43:22;5.50;99.90
20155;DHT22;10238;49.556;10.956;2023-12-14T08:46:09;5.60;99.90
20155;DHT22;10238;49.556;10.956;2023-12-14T08:48:57;5.60;99.90
20155;DHT22;10238;49.556;10.956;2023-12-14T08:51:45;5.70;99.90
20155;DHT22;10238;49.556;10.956;2023-12-14T08:54:33;5.70;99.90
20155;DHT22;10238;49.556;10.956;2023-12-14T08:57:21;5.80;99.90
20155;DHT22;10238;49.556;10.956;2023-12-14T09:00:09;5.90;99.90
20155;DHT22;10238;49.556;10.956;2023-12-14T09:02:58;6.00;99.90
20155;DHT22;10238;49.556;10.956;2023-12-14T09:05:46;6.20;99.90
20155;DHT22;10238;49.556;10.956;2023-12-14T09:08:36;6.20;99.90
20155;DHT22;10238;49.556;10.956;2023-12-14T09:11:23;6.20;99.90
20155;DHT22;10238;49.556;10.956;2023-12-14T09:14:11;6.30;99.90
20155;DHT22;10238;49.556;10.956;2023-12-14T09:16:59;6.40;99.90
20155;DHT22;10238;49.556;10.956;2023-12-14T09:19:47;6.40;99.90
20155;DHT22;10238;49.556;10.956;2023-12-14T09:22:34;6.50;99.90
20155;DHT22;10238;49.556;10.956;2023-12-14T09:25:23;6.50;99.90
20155;DHT22;10238;49.556;10.956;2023-12-14T09:28:12;6.50;99.90
20155;DHT22;10238;49.556;10.956;2023-12-14T09:30:59;6.50;99.90
20155;DHT22;10238;49.556;10.956;2023-12-14T09:33:49;6.60;99.90
20155;DHT22;10238;49.556;10.956;2023-12-14T09:36:38;6.70;99.90
20155;DHT22;10238;49.556;10.956;2023-12-14T09:39:26;6.80;99.90
20155;DHT22;10238;49.556;10.956;2023-12-14T09:42:18;6.80;99.90
20155;DHT22;10238;49.556;10.956;2023-12-14T09:45:08;6.80;99.90
20155;DHT22;10238;49.556;10.956;2023-12-14T09:47:57;6.80;99.90
20155;DHT22;10238;49.556;10.956;2023-12-14T09:50:47;6.90;99.90
20155;DHT22;10238;49.556;10.956;2023-12-14T09:53:36;6.90;99.90
20155;DHT22;10238;49.556;10.956;2023-12-14T09:56:24;7.00;99.90
20155;DHT22;10238;49.556;10.956;2023-12-14T09:59:13;7.10;99.90
20155;DHT22;10238;49.556;10.956;2023-12-14T10:02:12;7.20;99.90
20155;DHT22;10238;49.556;10.956;2023-12-14T10:05:00;7.30;99.90
20155;DHT22;10238;49.556;10.956;2023-12-14T10:07:48;7.30;99.90
20155;DHT22;10238;49.556;10.956;2023-12-14T10:10:36;7.40;99.90
20155;DHT22;10238;49.556;10.956;2023-12-14T10:13:36;7.40;99.90
20155;DHT22;10238;49.556;10.956;2023-12-14T10:16:32;7.50;99.90
20155;DHT22;10238;49.556;10.956;2023-12-14T10:19:20;7.50;99.90
20155;DHT22;10238;49.556;10.956;2023-12-14T10:22:08;7.50;99.90
20155;DHT22;10238;49.556;10.956;2023-12-14T10:24:56;7.50;99.90
20155;DHT22;10238;49.556;10.956;2023-12-14T10:27:46;7.50;99.90
20155;DHT22;10238;49.556;10.956;2023-12-14T10:30:34;7.50;99.90
20155;DHT22;10238;49.556;10.956;2023-12-14T10:33:24;7.50;99.90
20155;DHT22;10238;49.556;10.956;2023-12-14T10:36:13;7.50;99.90
20155;DHT22;10238;49.556;10.956;2023-12-14T10:39:01;7.50;99.90
20155;DHT22;10238;49.556;10.956;2023-12-14T10:41:52;7.50;99.90
20155;DHT22;10238;49.556;10.956;2023-12-14T10:44:52;7.50;99.90
20155;DHT22;10238;49.556;10.956;2023-12-14T10:48:01;7.50;99.90
20155;DHT22;10238;49.556;10.956;2023-12-14T10:50:53;7.50;99.90
20155;DHT22;10238;49.556;10.956;2023-12-14T10:53:44;7.50;99.90
20155;DHT22;10238;49.556;10.956;2023-12-14T10:56:34;7.50;99.90
20155;DHT22;10238;49.556;10.956;2023-12-14T10:59:23;7.50;99.90
20155;DHT22;10238;49.556;10.956;2023-12-14T11:02:11;7.50;99.90
20155;DHT22;10238;49.556;10.956;2023-12-14T11:05:01;7.50;99.90
20155;DHT22;10238;49.556;10.956;2023-12-14T11:07:55;7.60;99.90
20155;DHT22;10238;49.556;10.956;2023-12-14T11:10:53;7.60;99.90
20155;DHT22;10238;49.556;10.956;2023-12-14T11:13:46;7.50;99.90
20155;DHT22;10238;49.556;10.956;2023-12-14T11:16:36;7.50;99.90
20155;DHT22;10238;49.556;10.956;2023-12-14T11:19:30;7.60;99.90
20155;DHT22;10238;49.556;10.956;2023-12-14T11:22:26;7.60;99.90
20155;DHT22;10238;49.556;10.956;2023-12-14T11:25:17;7.60;99.90
20155;DHT22;10238;49.556;10.956;2023-12-14T11:28:14;7.60;99.90
20155;DHT22;10238;49.556;10.956;2023-12-14T11:31:03;7.60;99.90
20155;DHT22;10238;49.556;10.956;2023-12-14T11:33:53;7.60;99.90
20155;DHT22;10238;49.556;10.956;2023-12-14T11:36:42;7.60;99.90
20155;DHT22;10238;49.556;10.956;2023-12-14T11:39:31;7.60;99.90
20155;DHT22;10238;49.556;10.956;2023-12-14T11:42:20;7.70;99.90
20155;DHT22;10238;49.556;10.956;2023-12-14T11:45:09;7.70;99.90
20155;DHT22;10238;49.556;10.956;2023-12-14T11:47:57;7.70;99.90
20155;DHT22;10238;49.556;10.956;2023-12-14T11:50:45;7.70;99.90
20155;DHT22;10238;49.556;10.956;2023-12-14T11:53:33;7.60;99.90
20155;DHT22;10238;49.556;10.956;2023-12-14T11:56:24;7.70;99.90
20155;DHT22;10238;49.556;10.956;2023-12-14T11:59:14;7.60;99.90
20155;DHT22;10238;49.556;10.956;2023-12-14T12:02:04;7.70;99.90
20155;DHT22;10238;49.556;10.956;2023-12-14T12:04:52;7.70;99.90
20155;DHT22;10238;49.556;10.956;2023-12-14T12:07:40;7.70;99.90
20155;DHT22;10238;49.556;10.956;2023-12-14T12:10:30;7.70;99.90
20155;DHT22;10238;49.556;10.956;2023-12-14T12:13:20;7.70;99.90
20155;DHT22;10238;49.556;10.956;2023-12-14T12:16:09;7.70;99.90
20155;DHT22;10238;49.556;10.956;2023-12-14T12:18:57;7.70;99.90
20155;DHT22;10238;49.556;10.956;2023-12-14T12:21:45;7.60;99.90
20155;DHT22;10238;49.556;10.956;2023-12-14T12:24:32;7.60;99.90
20155;DHT22;10238;49.556;10.956;2023-12-14T12:27:20;7.60;99.90
20155;DHT22;10238;49.556;10.956;2023-12-14T12:30:08;7.60;99.90
20155;DHT22;10238;49.556;10.956;2023-12-14T12:32:59;7.60;99.90
20155;DHT22;10238;49.556;10.956;2023-12-14T12:35:47;7.60;99.90
20155;DHT22;10238;49.556;10.956;2023-12-14T12:38:35;7.50;99.90
20155;DHT22;10238;49.556;10.956;2023-12-14T12:41:26;7.50;99.90
20155;DHT22;10238;49.556;10.956;2023-12-14T12:44:14;7.50;99.90
20155;DHT22;10238;49.556;10.956;2023-12-14T12:47:01;7.50;99.90
20155;DHT22;10238;49.556;10.956;2023-12-14T12:49:58;7.50;99.90
20155;DHT22;10238;49.556;10.956;2023-12-14T12:52:45;7.40;99.90
20155;DHT22;10238;49.556;10.956;2023-12-14T12:55:35;7.40;99.90
20155;DHT22;10238;49.556;10.956;2023-12-14T12:58:22;7.40;99.90
20155;DHT22;10238;49.556;10.956;2023-12-14T13:01:10;7.40;99.90
20155;DHT22;10238;49.556;10.956;2023-12-14T13:03:58;7.30;99.90
20155;DHT22;10238;49.556;10.956;2023-12-14T13:06:48;7.40;99.90
20155;DHT22;10238;49.556;10.956;2023-12-14T13:09:36;7.30;99.90
20155;DHT22;10238;49.556;10.956;2023-12-14T13:12:24;7.30;99.90
20155;DHT22;10238;49.556;10.956;2023-12-14T13:15:12;7.30;99.90
20155;DHT22;10238;49.556;10.956;2023-12-14T13:18:00;7.30;99.90
20155;DHT22;10238;49.556;10.956;2023-12-14T13:20:48;7.30;99.90
20155;DHT22;10238;49.556;10.956;2023-12-14T13:23:37;7.20;99.90
20155;DHT22;10238;49.556;10.956;2023-12-14T13:26:24;7.20;99.90
20155;DHT22;10238;49.556;10.956;2023-12-14T13:29:12;7.20;99.90
20155;DHT22;10238;49.556;10.956;2023-12-14T13:32:00;7.10;99.90
20155;DHT22;10238;49.556;10.956;2023-12-14T13:34:48;7.10;99.90
20155;DHT22;10238;49.556;10.956;2023-12-14T13:37:36;7.10;99.90
20155;DHT22;10238;49.556;10.956;2023-12-14T13:40:25;7.00;99.90
20155;DHT22;10238;49.556;10.956;2023-12-14T13:43:13;7.00;99.90
20155;DHT22;10238;49.556;10.956;2023-12-14T13:46:01;7.00;99.90
20155;DHT22;10238;49.556;10.956;2023-12-14T13:49:05;7.00;99.90
20155;DHT22;10238;49.556;10.956;2023-12-14T13:51:53;6.90;99.90
20155;DHT22;10238;49.556;10.956;2023-12-14T13:54:40;6.90;99.90
20155;DHT22;10238;49.556;10.956;2023-12-14T13:57:29;6.90;99.90
20155;DHT22;10238;49.556;10.956;2023-12-14T14:00:17;6.90;99.90
20155;DHT22;10238;49.556;10.956;2023-12-14T14:03:06;6.90;99.90
20155;DHT22;10238;49.556;10.956;2023-12-14T14:05:54;6.90;99.90
20155;DHT22;10238;49.556;10.956;2023-12-14T14:08:41;6.90;99.90
20155;DHT22;10238;49.556;10.956;2023-12-14T14:11:29;6.90;99.90
20155;DHT22;10238;49.556;10.956;2023-12-14T14:14:18;6.80;99.90
20155;DHT22;10238;49.556;10.956;2023-12-14T14:17:06;6.80;99.90
20155;DHT22;10238;49.556;10.956;2023-12-14T14:19:54;6.80;99.90
20155;DHT22;10238;49.556;10.956;2023-12-14T14:22:42;6.80;99.90
20155;DHT22;10238;49.556;10.956;2023-12-14T14:25:30;6.80;99.90
20155;DHT22;10238;49.556;10.956;2023-12-14T14:28:17;6.80;99.90
20155;DHT22;10238;49.556;10.956;2023-12-14T14:31:11;6.80;99.90
20155;DHT22;10238;49.556;10.956;2023-12-14T14:33:59;6.70;99.90
20155;DHT22;10238;49.556;10.956;2023-12-14T14:36:47;6.80;99.90
20155;DHT22;10238;49.556;10.956;2023-12-14T14:39:35;6.80;99.90
20155;DHT22;10238;49.556;10.956;2023-12-14T14:42:26;6.80;99.90
20155;DHT22;10238;49.556;10.956;2023-12-14T14:45:14;6.80;99.90
20155;DHT22;10238;49.556;10.956;2023-12-14T14:48:04;6.80;99.90
20155;DHT22;10238;49.556;10.956;2023-12-14T14:50:54;6.70;99.90
20155;DHT22;10238;49.556;10.956;2023-12-14T14:53:41;6.70;99.90
20155;DHT22;10238;49.556;10.956;2023-12-14T14:56:29;6.70;99.90
20155;DHT22;10238;49.556;10.956;2023-12-14T14:59:17;6.70;99.90
20155;DHT22;10238;49.556;10.956;2023-12-14T15:02:05;6.70;99.90
20155;DHT22;10238;49.556;10.956;2023-12-14T15:04:54;6.70;99.90
20155;DHT22;10238;49.556;10.956;2023-12-14T15:07:41;6.60;99.90
20155;DHT22;10238;49.556;10.956;2023-12-14T15:10:29;6.60;99.90
20155;DHT22;10238;49.556;10.956;2023-12-14T15:13:17;6.60;99.90
20155;DHT22;10238;49.556;10.956;2023-12-14T15:16:06;6.60;99.90
20155;DHT22;10238;49.556;10.956;2023-12-14T15:18:54;6.60;99.90
20155;DHT22;10238;49.556;10.956;2023-12-14T15:21:43;6.60;99.90
20155;DHT22;10238;49.556;10.956;2023-12-14T15:24:31;6.50;99.90
20155;DHT22;10238;49.556;10.956;2023-12-14T15:27:19;6.50;99.90
20155;DHT22;10238;49.556;10.956;2023-12-14T15:30:08;6.50;99.90
20155;DHT22;10238;49.556;10.956;2023-12-14T15:32:57;6.50;99.90
20155;DHT22;10238;49.556;10.956;2023-12-14T15:35:45;6.50;99.90
20155;DHT22;10238;49.556;10.956;2023-12-14T15:38:34;6.40;99.90
20155;DHT22;10238;49.556;10.956;2023-12-14T15:41:21;6.50;99.90
20155;DHT22;10238;49.556;10.956;2023-12-14T15:44:09;6.50;99.90
20155;DHT22;10238;49.556;10.956;2023-12-14T15:46:57;6.40;99.90
20155;DHT22;10238;49.556;10.956;2023-12-14T15:49:45;6.40;99.90
20155;DHT22;10238;49.556;10.956;2023-12-14T15:52:33;6.40;99.90
20155;DHT22;10238;49.556;10.956;2023-12-14T15:55:22;6.40;99.90
20155;DHT22;10238;49.556;10.956;2023-12-14T15:58:11;6.40;99.90
20155;DHT22;10238;49.556;10.956;2023-12-14T16:00:58;6.40;99.90
20155;DHT22;10238;49.556;10.956;2023-12-14T16:03:46;6.30;99.90
20155;DHT22;10238;49.556;10.956;2023-12-14T16:06:34;6.30;99.90
20155;DHT22;10238;49.556;10.956;2023-12-14T16:09:21;6.30;99.90
20155;DHT22;10238;49.556;10.956;2023-12-14T16:12:10;6.30;99.90
20155;DHT22;10238;49.556;10.956;2023-12-14T16:14:57;6.30;99.90
20155;DHT22;10238;49.556;10.956;2023-12-14T16:17:45;6.30;99.90
20155;DHT22;10238;49.556;10.956;2023-12-14T16:20:33;6.30;99.90
20155;DHT22;10238;49.556;10.956;2023-12-14T16:23:20;6.30;99.90
20155;DHT22;10238;49.556;10.956;2023-12-14T16:26:11;6.30;99.90
20155;DHT22;10238;49.556;10.956;2023-12-14T16:29:00;6.30;99.90
20155;DHT22;10238;49.556;10.956;2023-12-14T16:31:48;6.30;99.90
20155;DHT22;10238;49.556;10.956;2023-12-14T16:34:36;6.20;99.90
20155;DHT22;10238;49.556;10.956;2023-12-14T16:37:24;6.20;99.90
20155;DHT22;10238;49.556;10.956;2023-12-14T16:40:13;6.20;99.90
20155;DHT22;10238;49.556;10.956;2023-12-14T16:43:02;6.20;99.90
20155;DHT22;10238;49.556;10.956;2023-12-14T16:45:51;6.20;99.90
20155;DHT22;10238;49.556;10.956;2023-12-14T16:48:40;6.20;99.90
20155;DHT22;10238;49.556;10.956;2023-12-14T16:51:28;6.10;99.90
20155;DHT22;10238;49.556;10.956;2023-12-14T16:54:15;6.10;99.90
20155;DHT22;10238;49.556;10.956;2023-12-14T16:57:03;6.10;99.90
20155;DHT22;10238;49.556;10.956;2023-12-14T16:59:51;6.10;99.90
20155;DHT22;10238;49.556;10.956;2023-12-14T17:02:41;6.10;99.90
20155;DHT22;10238;49.556;10.956;2023-12-14T17:05:28;6.00;99.90
20155;DHT22;10238;49.556;10.956;2023-12-14T17:08:16;6.00;99.90
20155;DHT22;10238;49.556;10.956;2023-12-14T17:11:05;6.00;99.90
20155;DHT22;10238;49.556;10.956;2023-12-14T17:13:55;6.00;99.90
20155;DHT22;10238;49.556;10.956;2023-12-14T17:16:45;6.00;99.90
20155;DHT22;10238;49.556;10.956;2023-12-14T17:19:34;6.00;99.90
20155;DHT22;10238;49.556;10.956;2023-12-14T17:22:24;5.90;99.90
20155;DHT22;10238;49.556;10.956;2023-12-14T17:25:11;6.00;99.90
20155;DHT22;10238;49.556;10.956;2023-12-14T17:27:59;6.00;99.90
20155;DHT22;10238;49.556;10.956;2023-12-14T17:30:47;6.00;99.90
20155;DHT22;10238;49.556;10.956;2023-12-14T17:33:36;5.90;99.90
20155;DHT22;10238;49.556;10.956;2023-12-14T17:36:25;5.90;99.90
20155;DHT22;10238;49.556;10.956;2023-12-14T17:39:12;5.90;99.90
20155;DHT22;10238;49.556;10.956;2023-12-14T17:42:00;5.90;99.90
20155;DHT22;10238;49.556;10.956;2023-12-14T17:44:47;5.90;99.90